Pompano Beach, FL

2:17 AM EDT on August 25, 2016 (GMT -0400)
Crystal Lake | | Change Station

Elev 14 ft 26.29 °N, 80.14 °W | Updated 12 seconds ago

Scattered Clouds
Scattered Clouds
84.2 °F
Feels Like 103 °F
N
4.0
Wind Variable Wind from East
Gusts 4.9 mph

Today
High -- | Low -- °F
--% Chance of Precip.
Yesterday
High -- | Low -- °F
Precip. -- in
Pressure 29.99 in
Visibility 10.0 miles
Clouds Few 1800 ft
Scattered Clouds 2500 ft
Heat Index 103 °F
Dew Point 84 °F
Humidity 99%
Rainfall 0.00 in
Snow Depth Not available.
6:57 AM 7:46 PM
Waning Gibbous, 49% visible
METAR KPMP 250553Z AUTO 08008KT 10SM FEW018 SCT025 29/26 A2998 RMK AO2 SLP154 60000 T02890256 10289 20283 58009 $
Pressure 29.99 in
Visibility 10.0 miles
Clouds Few 1800 ft
Scattered Clouds 2500 ft
Heat Index 103 °F
Dew Point 84 °F
Humidity 99%
Rainfall 0.00 in
Snow Depth Not available.
6:57 AM 7:46 PM
Waning Gibbous, 49% visible
METAR KPMP 250553Z AUTO 08008KT 10SM FEW018 SCT025 29/26 A2998 RMK AO2 SLP154 60000 T02890256 10289 20283 58009 $

10-Day Weather Forecast

Almanac

Astronomy

Aug. 25, 2016 Rise Set
Actual Time
Civil Twilight
Nautical Twilight
Astronomical Twilight
Moon
Length of Visible Light
Length of Day
Tomorrow will be .
, % of the Moon is Illuminated

Today's Extremes

State Highs State Lows

Community

WunderPhotos

Upload Photos

1,934,803 photos uploaded!

WunderBlog® & News

Nearby

Air Quality

  Air Quality AQ Index Pollutant
Not available.

Snow Depth

Station Depth Elevation

Earthquake Activity

City Distance Mag. Time & Date
Minimum magnitude displayed is 2.5.

Coastal Water Temperatures

Place Temperature

Stations

Nearby Weather Stations

Station Location Temp. Windchill Dew Point Humidity Wind Precip. Elev Updated Type
                   

Watches & Warnings

There are currently no watches in effect.